• Join FlightAware (Why Join?)
  • Login
  • US Flag 
04:02AM EST


 

Airport Tracker/Info


-or-


 

Live Flight TrackerFlight Track Log ✈ UPS2038 ✈ 20-Mar-2014 ✈ KDFW - KEWR

Flight Track Log - Related Links

Times and Time Zones

All times are in EDT time to prevent confusion due to time zone crossing. See the UPS2038 flight status page for this flight to view local times or setup timezone preferences in your user account.

Time Position Orientation Groundspeed Altitude Reporting Facility
EDT Latitude Longitude Course Direction KTS MPH feet Rate Location/Type
05:07PM 32.9000 -97.0167 73° East 166 191 1,100  Level Dallas / Fort Worth TRACON
05:08PM 32.8638 -97.0247 177° South 187 215 2,800 2,580 Climbing FlightAware ADS-B (KAFW)
05:08PM 32.8532 -97.0237 167° South 215 247 3,200 1,260 Climbing FlightAware ADS-B
05:08PM 32.8437 -97.0207 160° South 230 265 3,400 2,700 Climbing FlightAware ADS-B (KAFW)
05:09PM 32.8028 -97.0038 161° South 255 293 5,400 3,600 Climbing FlightAware ADS-B (KAFW)
05:09PM 32.7951 -97.0006 146° Southeast 278 320 6,000 2,280 Climbing FlightAware ADS-B
05:09PM 32.7796 -96.9874 134° Southeast 283 326 6,200 2,520 Climbing FlightAware ADS-B (KAFW)
05:09PM 32.7751 -96.9780 115° Southeast 281 323 6,800 4,500 Climbing FlightAware ADS-B (KAFW)
05:10PM 32.7651 -96.9482 108° East 282 325 8,300 3,600 Climbing FlightAware ADS-B (KAFW)
05:10PM 32.7625 -96.9299 92° East 294 338 8,800 1,440 Climbing FlightAware ADS-B (KAFW)
05:10PM 32.7632 -96.9068 85° East 304 350 9,100 1,020 Climbing FlightAware ADS-B (KAFW)
05:11PM 32.7738 -96.8168 65° Northeast 305 351 10,000 4,980 Climbing FlightAware ADS-B (KAFW)
05:11PM 32.7702 -96.8272 64° Northeast 368 423 14,800 2,220 Climbing FlightAware ADS-B
05:13PM 32.7576 -96.9029 73° East  Level FlightAware Approximate
05:13PM 32.7745 -96.8152 64° Northeast 405 466 14,500  Level FlightAware ADS-B (KAFW)
05:15PM 32.9277 -96.4376 73° East 449 517 20,500 2,880 Climbing FlightAware ADS-B
05:16PM 32.9760 -96.2839 81° East 460 529 22,600 1,800 Climbing FlightAware ADS-B
05:19PM 33.0563 -95.7008 North 28,000 1,680 Climbing FlightAware ADS-B (KHOU)
05:19PM 33.0675 -95.6193 79° East 516 594 29,000 1,320 Climbing FlightAware ADS-B (KHOU)
05:24PM 33.2793 -94.8781 70° East 522 601 35,000 1,140 Climbing FlightAware ADS-B (KHOU)
05:25PM 33.3068 -94.7840 70° East 520 598 35,000  Level FlightAware ADS-B (KHOU)
05:25PM 33.3176 -94.7466 70° East 518 596 35,000  Level FlightAware ADS-B (KHOU)
05:26PM 33.3529 -94.6260 70° East 514 592 35,000  Level FlightAware ADS-B (KHOU)
05:26PM 33.3686 -94.5727 70° East 512 589 35,000  Level FlightAware ADS-B (KHOU)
05:27PM 33.4214 -94.3919 70° East 512 589 35,000  Level Memphis Center
05:28PM 33.4675 -94.2328 71° East 508 585 35,000  Level Memphis Center
05:29PM 33.5083 -94.0683 73° East 508 585 35,000  Level Memphis Center
05:30PM 33.5236 -93.8919 84° East 518 596 35,000  Level Memphis Center
05:31PM 33.5314 -93.7097 87° East 519 597 35,000  Level Memphis Center
05:32PM 33.5394 -93.5414 87° East 520 598 35,000  Level Memphis Center
05:33PM 33.5472 -93.3683 87° East 520 598 35,000  Level Memphis Center
05:34PM 33.5550 -93.1950 87° East 520 598 35,000  Level Memphis Center
05:35PM 33.5639 -92.9875 87° East 520 598 35,000  Level Memphis Center
05:36PM 33.5708 -92.8153 87° East 519 597 35,000  Level Memphis Center
05:37PM 33.5778 -92.6442 87° East 518 596 35,000  Level Memphis Center
05:39PM 33.5847 -92.4731 87° East 517 595 35,000  Level Memphis Center
05:40PM 33.5911 -92.2953 87° East 517 595 35,000  Level Memphis Center
05:41PM 33.5967 -92.1300 88° East 516 594 35,000  Level Memphis Center
05:42PM 33.6039 -91.9256 88° East 514 592 35,000  Level Memphis Center
05:43PM 33.6094 -91.7558 88° East 513 590 35,000  Level Memphis Center
05:44PM 33.6153 -91.5744 88° East 513 590 35,000  Level Memphis Center
05:45PM 33.6203 -91.4047 88° East 513 590 35,000  Level Memphis Center
05:46PM 33.6250 -91.2344 88° East 513 590 35,000 -120 Level Memphis Center
05:47PM 33.6297 -91.0647 88° East 513 590 34,800 -540 Descending Memphis Center
05:48PM 33.6344 -90.8942 88° East 514 592 33,900 -900 Descending Memphis Center
05:49PM 33.6394 -90.6900 88° East 513 590 33,000 -480 Descending Memphis Center
05:50PM 33.6433 -90.5189 88° East 514 592 33,000  Level Memphis Center
05:51PM 33.6467 -90.3472 89° East 515 593 33,000  Level Memphis Center
05:52PM 33.6503 -90.1747 89° East 516 594 33,000  Level Memphis Center
05:53PM 33.6536 -90.0017 89° East 518 596 33,000  Level Memphis Center
05:54PM 33.6567 -89.8286 89° East 518 596 33,000  Level Memphis Center
05:55PM 33.6597 -89.6206 89° East 519 597 33,000  Level Memphis Center
05:56PM 33.6622 -89.4472 89° East 520 598 33,000  Level Memphis Center
05:57PM 33.6644 -89.2733 89° East 521 600 33,000  Level Memphis Center
05:58PM 33.6664 -89.0994 89° East 522 601 33,000  Level Memphis Center
05:59PM 33.6681 -88.9258 89° East 522 601 33,000  Level Memphis Center
06:00PM 33.6697 -88.7450 89° East 523 602 33,000  Level Memphis Center
06:01PM 33.6708 -88.5364 90° East 523 602 33,000  Level Memphis Center
06:02PM 33.6717 -88.3636 90° East 523 602 33,000  Level Memphis Center
06:03PM 33.6728 -88.1908 90° East 522 601 33,000 -300 Level Memphis Center
06:09PM 33.6717 -87.1445 90° East 532 612 31,000 -360 Descending FlightAware ADS-B (KMDQ)
06:10PM 33.6712 -87.0505 90° East 531 611 31,000  Level FlightAware ADS-B (KMDQ)
06:11PM 33.6701 -86.8850 91° East 531 611 31,000  Level FlightAware ADS-B (KMDQ)
06:12PM 33.6685 -86.6743 91° East 531 611 31,000  Level FlightAware ADS-B (KMDQ)
06:12PM 33.6676 -86.5714 91° East 531 611 31,000  Level FlightAware ADS-B (KMDQ)
06:13PM 33.6664 -86.4518 91° East 530 610 31,000  Level FlightAware ADS-B (KMDQ)
06:15PM 33.6624 -86.1308 91° East 530 610 31,000  Level FlightAware ADS-B (KMDQ)
06:16PM 33.6586 -85.9381 91° East 531 611 31,000  Level Atlanta Center
06:17PM 33.6608 -85.7858 89° East 525 604 31,000  Level Atlanta Center
06:18PM 33.6592 -85.6086 91° East 518 596 31,000  Level Atlanta Center
06:19PM 33.6550 -85.4314 92° East 523 602 31,000  Level Atlanta Center
06:20PM 33.6506 -85.2567 92° East 523 602 31,000  Level Atlanta Center
06:21PM 33.6458 -85.0794 92° East 523 602 31,000  Level Atlanta Center
06:22PM 33.6408 -84.9047 92° East 523 602 31,000  Level Atlanta Center
06:23PM 33.6378 -84.7400 91° East 523 602 31,000  Level Atlanta Center
06:24PM 33.6325 -84.5353 92° East 523 602 31,000  Level Atlanta Center
06:25PM 33.6311 -84.3606 90° East 523 602 31,000  Level Atlanta Center
06:26PM 33.6606 -84.2236 75° East 528 608 31,000  Level Atlanta Center
06:27PM 33.7253 -84.0464 66° East 522 601 31,000  Level Atlanta Center
06:28PM 33.8047 -83.9039 56° Northeast 512 589 31,000  Level Atlanta Center
06:29PM 33.8919 -83.7711 52° Northeast 507 583 31,000  Level Atlanta Center
06:30PM 33.9794 -83.6331 53° Northeast 514 592 31,000  Level Atlanta Center
06:31PM 34.0728 -83.4847 53° Northeast 509 586 31,000  Level Atlanta Center
06:32PM 34.1597 -83.3483 52° Northeast 509 586 31,000  Level Atlanta Center
06:33PM 34.2422 -83.2147 53° Northeast 509 586 31,000  Level Atlanta Center
06:34PM 34.3289 -83.0753 53° Northeast 509 586 31,000  Level Atlanta Center
06:35PM 34.4092 -82.9411 54° Northeast 509 586 31,000  Level Atlanta Center
06:36PM 34.4978 -82.8039 52° Northeast 509 586 31,000  Level Atlanta Center
06:37PM 34.5775 -82.6639 55° Northeast 503 579 31,000  Level Atlanta Center
06:38PM 34.6658 -82.5336 50° Northeast 503 579 31,000  Level Atlanta Center
06:39PM 34.7475 -82.3956 54° Northeast 503 579 31,000  Level Atlanta Center
06:40PM 34.8331 -82.2572 53° Northeast 510 587 31,000  Level Atlanta Center
06:41PM 34.9003 -82.1444 54° Northeast 510 587 31,000  Level Atlanta Center
06:42PM 34.9939 -81.9928 53° Northeast 510 587 31,000  Level Atlanta Center
06:43PM 35.0769 -81.8511 54° Northeast 510 587 31,000  Level Atlanta Center
06:44PM 35.1536 -81.7042 57° Northeast 510 587 31,000  Level Atlanta Center
06:45PM 35.2400 -81.5364 58° Northeast 520 598 31,000  Level Atlanta Center
06:46PM 35.3183 -81.3892 57° Northeast 520 598 31,000  Level Atlanta Center
06:47PM 35.3942 -81.2389 58° Northeast 520 598 31,000  Level Atlanta Center
06:48PM 35.4742 -81.0883 57° Northeast 520 598 31,000  Level Atlanta Center
06:49PM 35.5519 -80.9375 58° Northeast 520 598 31,000  Level Atlanta Center
06:50PM 35.6314 -80.7861 57° Northeast 520 598 31,000  Level Atlanta Center
06:51PM 35.7067 -80.6375 58° Northeast 520 598 31,000  Level Atlanta Center
06:52PM 35.7858 -80.4856 57° Northeast 520 598 31,000  Level Atlanta Center
06:53PM 35.8606 -80.3364 58° Northeast 520 598 31,000  Level Atlanta Center
06:55PM 36.0197 -80.0244 58° Northeast 517 595 31,000  Level Washington Center
06:56PM 36.1000 -79.8800 55° Northeast 510 587 31,000  Level Washington Center
06:57PM 36.1914 -79.7203 55° Northeast 505 581 31,000  Level Washington Center
06:58PM 36.2714 -79.5725 56° Northeast 520 598 31,000  Level Washington Center
06:59PM 36.3486 -79.4447 53° Northeast 515 593 31,000  Level Washington Center
07:00PM 36.4372 -79.2814 56° Northeast 515 593 31,000  Level Washington Center
07:01PM 36.5167 -79.1353 56° Northeast 515 593 31,000  Level Washington Center
07:02PM 36.6003 -78.9942 54° Northeast 515 593 31,000  Level Washington Center
07:03PM 36.6794 -78.8447 57° Northeast 515 593 31,000  Level Washington Center
07:04PM 36.7539 -78.7106 55° Northeast 520 598 31,000  Level Washington Center
07:05PM 36.8019 -78.5439 70° East 503 579 31,000  Level Washington Center
07:06PM 36.8233 -78.3500 82° East 503 579 31,000  Level Washington Center
07:07PM 36.8522 -78.1694 79° East 509 586 31,000  Level Washington Center
07:08PM 36.9428 -78.0372 49° Northeast 479 551 31,000  Level Washington Center
07:09PM 37.0592 -77.9525 30° Northeast 465 535 31,000  Level Washington Center
07:10PM 37.1756 -77.8700 29° Northeast 465 535 31,000  Level Washington Center
07:11PM 37.2997 -77.8086 21° North 472 543 31,000  Level Washington Center
07:12PM 37.4236 -77.7625 16° North 461 531 31,000  Level Washington Center
07:13PM 37.5400 -77.6739 31° Northeast 461 531 31,000  Level Washington Center
07:14PM 37.6561 -77.5853 31° Northeast 474 545 31,000  Level Washington Center
07:21PM 38.3900 -77.0000 33° Northeast 490 564 31,000  Level FlightAware ADS-B (KDCA)
07:22PM 38.5063 -76.9060 32° Northeast 491 565 31,000  Level FlightAware ADS-B (KDCA)
07:23PM 38.6437 -76.7952 33° Northeast 495 570 31,000  Level FlightAware ADS-B (KDCA)
07:24PM 38.7610 -76.6795 43° Northeast 510 587 31,000 -360 Level FlightAware ADS-B (KDCA)
07:27PM 39.0730 -76.3206 42° Northeast 512 589 29,600 -540 Descending FlightAware ADS-B (KAPG)
07:27PM 39.1302 -76.2535 43° Northeast 502 578 29,200 -1,440 Descending FlightAware ADS-B (KAPG)
07:28PM 39.1779 -76.1977 42° Northeast 503 579 27,900 -1,920 Descending FlightAware ADS-B (KAPG)
07:28PM 39.2228 -76.1449 43° Northeast 485 558 27,500 -1,560 Descending FlightAware ADS-B (KWWD)
07:29PM 39.2894 -76.0671 43° Northeast 481 554 26,500 -1,200 Descending FlightAware ADS-B (KWWD)
07:30PM 39.3733 -75.9684 43° Northeast 486 559 25,700 -960 Descending FlightAware ADS-B (KWWD)
07:30PM 39.4272 -75.9045 43° Northeast 480 552 25,200 -600 Descending FlightAware ADS-B (KAPG)
07:31PM 39.4964 -75.8224 43° Northeast 475 547 25,000 -660 Descending FlightAware ADS-B (KAPG)
07:32PM 39.5541 -75.7541 42° Northeast 476 548 24,400 -1,440 Descending FlightAware ADS-B (KWWD)
07:32PM 39.6117 -75.6860 43° Northeast 466 536 23,300 -2,040 Descending FlightAware ADS-B (KWWD)
07:33PM 39.6634 -75.6243 43° Northeast 464 534 22,100 -2,580 Descending FlightAware ADS-B (KWWD)
07:33PM 39.7213 -75.5549 44° Northeast 449 517 20,400 -2,820 Descending FlightAware ADS-B (KWWD)
07:34PM 39.7698 -75.4962 43° Northeast 444 511 18,900 -2,700 Descending FlightAware ADS-B (KWWD)
07:34PM 39.8213 -75.4339 44° Northeast 427 491 17,400 -2,760 Descending FlightAware ADS-B (KWWD)
07:35PM 39.8731 -75.3708 43° Northeast 417 480 15,700 -2,400 Descending FlightAware ADS-B (KWWD)
07:36PM 39.9558 -75.2706 44° Northeast 379 436 13,600 -1,980 Descending FlightAware ADS-B (KWWD)
07:37PM 40.0019 -75.2145 44° Northeast 338 389 12,500 -1,380 Descending FlightAware ADS-B (KWWD)
07:38PM 39.7720 -75.4936 43° Northeast 319 367 11,200 -1,200 Descending FlightAware ADS-B (KPHL)
07:40PM 39.7720 -75.4936 43° Northeast 311 358 9,200 -900 Descending FlightAware ADS-B (KPHL)
07:44PM 40.4220 -74.6733 36° Northeast 282 325 6,200 -720 Descending FlightAware ADS-B (KWWD)
07:44PM 40.4500 -74.6667 36° Northeast 283 326 6,000 -180 Descending New York TRACON
07:45PM 40.5333 -74.6333 17° North 267 307 6,000  Level New York TRACON
07:46PM 40.6000 -74.6167 11° North 261 300 6,000  Level New York TRACON
07:47PM 40.6667 -74.6000 11° North 269 310 6,000  Level New York TRACON
07:48PM 40.7333 -74.5500 30° Northeast 277 319 6,000 -120 Level New York TRACON
07:49PM 40.8000 -74.5000 30° Northeast 276 318 5,800 -540 Descending New York TRACON
07:50PM 40.8667 -74.4500 30° Northeast 276 318 5,000 -420 Descending New York TRACON
07:51PM 40.9333 -74.3833 37° Northeast 278 320 5,000  Level New York TRACON
07:52PM 40.9667 -74.2833 66° East 283 326 5,000 -420 Level New York TRACON
07:53PM 40.9667 -74.2000 90° East 259 298 4,200 -540 Descending New York TRACON
07:54PM 40.9333 -74.1167 118° Southeast 245 282 4,000 -600 Descending New York TRACON
07:55PM 40.8833 -74.0667 143° Southeast 223 257 3,100 -540 Descending New York TRACON
07:56PM 40.8333 -74.0667 180° South 166 191 3,000 -480 Descending New York TRACON
07:57PM 40.8000 -74.1000 217° Southwest 155 178 2,200 -840 Descending New York TRACON
07:58PM 40.7667 -74.1167 201° Southwest 141 162 1,400 -780 Descending New York TRACON
07:59PM 40.7333 -74.1333 201° Southwest 123 142 700 -720 Descending New York TRACON
08:01PM 40.6833 -74.1667 191° South  Level FlightAware Approximate
08:08PM 40.6925 -74.1687 191° South  Level Estimated